釜山 の空港の天気 - METARとTAF

金海国際空港 ( RKPK / PUS ) - 韓国 釜山広域市
飛行場実況気象(Metar)
観測時間07/13 00:00 KST (07/12 15:00 UTC)
風向・風速北北東 5m/s
視程6000m
天気現象
少しの雲 雲底高度 300m
全天の8割程度の雲 雲底高度 460m
全天を覆う雲 雲底高度 910m
気温21℃
湿度83%
気圧1009.3hPa
METARRKPK 121500Z 02009KT 6000 RA FEW010 BKN015 OVC030 21/18 Q1009 RMK CIG015 SLP093 70146 8/7// 9/8//
過去の天気等 Google飛行場航空写真 Wunderground天気予報

過去48時間のMETAR

飛行場予報(TAF)
発表時間: 7/12 20:00 KST (7/12 11:00 UTC)
予報対象時間: 12日21時 KST ~ 14日3時 KST
風向・風速東 3m/s
視程4800m
天気現象弱い雨 もや
全天の8割程度の雲 雲底高度 460m
全天を覆う雲 雲底高度 910m
12日23時 KST ~ 12日24時 KST に徐々に
全天の8割程度の雲 雲底高度 300m
全天を覆う雲 雲底高度 610m
13日11時 KST ~ 13日12時 KST に徐々に
風向・風速南南東 5m/s 瞬間風速 10m/s
TAF RKPK 121100Z 1212/1318 09006KT 4800 -RA BR BKN015 OVC030 TN21/1221Z TX24/1306Z
BECMG 1214/1215 BKN010 OVC020
BECMG 1302/1303 15010G20KT